createdAt,value
2018-10-05T00:01:52.474Z,54.17
2018-10-05T00:04:20.969Z,60.97
2018-10-05T00:06:49.510Z,55.07
2018-10-05T00:09:18.018Z,61.47
2018-10-05T00:11:46.551Z,60.67
2018-10-05T00:14:15.871Z,57.33
2018-10-05T00:16:44.417Z,62.43
2018-10-05T00:19:13.009Z,55.60
2018-10-05T00:21:42.264Z,54.80
2018-10-05T00:24:10.850Z,62.73
2018-10-05T00:26:40.055Z,60.10
2018-10-05T00:29:08.589Z,57.27
2018-10-05T00:31:38.134Z,62.70
2018-10-05T00:34:06.677Z,63.37
2018-10-05T00:36:35.191Z,61.43
2018-10-05T00:39:04.655Z,57.77
2018-10-05T00:41:33.186Z,59.83
2018-10-05T00:44:01.746Z,59.20
2018-10-05T00:47:02.010Z,70.50
2018-10-05T00:49:30.567Z,60.93
2018-10-05T00:51:59.800Z,63.03
2018-10-05T00:54:28.330Z,55.80
2018-10-05T00:56:56.879Z,53.70
2018-10-05T00:59:25.479Z,66.03
2018-10-05T01:01:54.092Z,59.80
2018-10-05T01:04:22.535Z,57.70
2018-10-05T01:06:51.163Z,50.43
2018-10-05T01:09:19.678Z,63.67
2018-10-05T01:11:48.187Z,56.90
2018-10-05T01:14:16.735Z,58.83
2018-10-05T01:16:45.298Z,52.50
2018-10-05T01:19:14.043Z,59.57
2018-10-05T01:21:42.567Z,62.20
2018-10-05T01:24:11.079Z,54.33
2018-10-05T01:26:39.636Z,59.93
2018-10-05T01:29:08.143Z,55.10
2018-10-05T01:31:36.682Z,54.00
2018-10-05T01:34:05.228Z,49.03
2018-10-05T01:36:33.756Z,53.53
2018-10-05T01:39:02.619Z,52.63
2018-10-05T01:41:31.203Z,55.33
2018-10-05T01:43:59.781Z,45.13
2018-10-05T01:46:28.332Z,58.73
2018-10-05T01:48:56.821Z,48.63
2018-10-05T01:51:35.601Z,51.63
2018-10-05T01:54:05.859Z,52.17
2018-10-05T01:56:35.044Z,47.53
2018-10-05T01:59:03.956Z,44.87
2018-10-05T02:01:33.046Z,46.73
2018-10-05T02:04:01.832Z,49.23
2018-10-05T02:06:30.362Z,50.80
2018-10-05T02:08:58.954Z,43.83
2018-10-05T02:11:27.950Z,50.60
2018-10-05T02:13:56.471Z,42.30
2018-10-05T02:16:25.056Z,43.90
2018-10-05T02:18:53.573Z,42.00
2018-10-05T02:21:22.069Z,41.63
2018-10-05T02:23:50.617Z,42.37
2018-10-05T02:26:19.130Z,43.17
2018-10-05T02:28:47.633Z,46.07
2018-10-05T02:31:16.192Z,40.33
2018-10-05T02:33:44.797Z,49.53
2018-10-05T02:36:13.345Z,44.47
2018-10-05T02:38:41.897Z,42.10
2018-10-05T02:41:10.498Z,40.47
2018-10-05T02:43:39.067Z,41.40
2018-10-05T02:46:07.629Z,39.57
2018-10-05T02:48:36.635Z,43.57
2018-10-05T02:51:05.411Z,43.70
2018-10-05T02:53:34.004Z,38.23
2018-10-05T02:56:02.578Z,43.57
2018-10-05T02:58:31.145Z,47.23
2018-10-05T03:01:11.246Z,40.67
2018-10-05T03:03:39.891Z,34.27
2018-10-05T03:06:08.411Z,44.40
2018-10-05T03:08:36.946Z,38.27
2018-10-05T03:11:06.933Z,41.27
2018-10-05T03:13:35.674Z,35.63
2018-10-05T03:16:04.304Z,38.77
2018-10-05T03:18:32.871Z,33.87
2018-10-05T03:21:01.639Z,41.63
2018-10-05T03:23:30.191Z,37.37
2018-10-05T03:25:58.852Z,36.10
2018-10-05T03:28:59.868Z,37.87
2018-10-05T03:31:28.443Z,37.73
2018-10-05T03:33:57.024Z,36.70
2018-10-05T03:36:25.522Z,43.20
2018-10-05T03:38:54.253Z,39.13
2018-10-05T03:41:22.962Z,32.43
2018-10-05T03:43:51.537Z,36.60
2018-10-05T03:46:20.095Z,36.77
2018-10-05T03:48:48.750Z,35.87
2018-10-05T03:51:17.333Z,36.10
2018-10-05T03:53:45.931Z,37.60
2018-10-05T03:56:14.619Z,35.63
2018-10-05T03:58:43.263Z,34.43
2018-10-05T04:01:11.843Z,34.10
2018-10-05T04:03:40.388Z,34.77
2018-10-05T04:06:09.499Z,37.23
2018-10-05T04:08:38.113Z,37.73
2018-10-05T04:11:06.748Z,36.50
2018-10-05T04:13:35.291Z,38.30
2018-10-05T04:16:03.880Z,36.20
2018-10-05T04:18:32.423Z,44.73
2018-10-05T04:21:01.027Z,34.87
2018-10-05T04:23:30.334Z,41.90
2018-10-05T04:25:58.864Z,38.23
2018-10-05T04:28:27.423Z,35.80
2018-10-05T04:30:56.020Z,31.57
2018-10-05T04:33:24.682Z,37.57
2018-10-05T04:35:53.264Z,30.23
2018-10-05T04:38:21.834Z,32.13
2018-10-05T04:40:50.355Z,43.73
2018-10-05T04:43:18.956Z,39.30
2018-10-05T04:45:47.511Z,41.20
2018-10-05T04:48:16.091Z,36.57
2018-10-05T04:50:44.677Z,33.83
2018-10-05T04:53:13.211Z,37.07
2018-10-05T04:55:41.811Z,35.93
2018-10-05T04:58:10.840Z,40.00
2018-10-05T05:00:39.459Z,41.50
2018-10-05T05:03:08.152Z,39.33
2018-10-05T05:05:36.661Z,38.27
2018-10-05T05:08:05.197Z,35.87
2018-10-05T05:10:33.758Z,36.27
2018-10-05T05:13:02.262Z,35.03
2018-10-05T05:15:30.839Z,32.00
2018-10-05T05:17:59.422Z,49.47
2018-10-05T05:20:27.962Z,29.57
2018-10-05T05:22:56.515Z,38.80
2018-10-05T05:25:25.093Z,37.93
2018-10-05T05:27:53.678Z,36.30
2018-10-05T05:30:22.495Z,32.90
2018-10-05T05:32:51.014Z,35.23
2018-10-05T05:35:19.684Z,35.80
2018-10-05T05:37:48.222Z,31.83
2018-10-05T05:40:16.848Z,36.87
2018-10-05T05:42:45.449Z,30.83
2018-10-05T05:45:14.177Z,30.93
2018-10-05T05:47:42.709Z,39.60
2018-10-05T05:50:11.295Z,36.17
2018-10-05T05:52:39.808Z,37.20
2018-10-05T05:55:08.361Z,38.60
2018-10-05T05:57:36.959Z,35.70
2018-10-05T06:00:05.636Z,36.50
2018-10-05T06:02:34.183Z,43.23
2018-10-05T06:05:02.723Z,36.00
2018-10-05T06:07:31.266Z,41.20
2018-10-05T06:09:59.908Z,39.70
2018-10-05T06:12:28.447Z,34.03
2018-10-05T06:14:56.983Z,34.33
2018-10-05T06:17:25.537Z,40.43
2018-10-05T06:19:54.066Z,40.47
2018-10-05T06:22:22.905Z,37.70
2018-10-05T06:24:51.142Z,31.93
2018-10-05T06:27:19.772Z,43.20
2018-10-05T06:29:48.652Z,34.23
2018-10-05T06:32:17.190Z,32.90
2018-10-05T06:34:45.736Z,33.77
2018-10-05T06:37:14.358Z,38.40
2018-10-05T06:39:42.902Z,32.20
2018-10-05T06:42:11.585Z,32.70
2018-10-05T06:44:40.151Z,28.43
2018-10-05T06:47:09.667Z,43.60
2018-10-05T06:49:38.201Z,32.63
2018-10-05T06:52:06.783Z,32.60
2018-10-05T06:54:35.368Z,28.83
2018-10-05T06:57:03.903Z,33.03
2018-10-05T06:59:32.482Z,35.60
2018-10-05T07:02:01.098Z,33.03
2018-10-05T07:04:30.195Z,29.70
2018-10-05T07:06:58.755Z,25.40
2018-10-05T07:09:27.376Z,38.80
2018-10-05T07:11:55.927Z,27.77
2018-10-05T07:14:24.525Z,35.60
2018-10-05T07:16:53.096Z,30.07
2018-10-05T07:19:21.644Z,32.07
2018-10-05T07:21:50.257Z,30.17
2018-10-05T07:24:18.822Z,21.07
2018-10-05T07:26:47.379Z,26.63
2018-10-05T07:29:15.899Z,25.30
2018-10-05T07:31:44.466Z,23.43
2018-10-05T07:34:13.127Z,29.63
2018-10-05T07:36:41.668Z,25.70
2018-10-05T07:39:10.930Z,26.80
2018-10-05T07:41:39.564Z,31.73
2018-10-05T07:44:09.026Z,29.23
2018-10-05T07:46:37.663Z,28.03
2018-10-05T07:49:06.283Z,27.63
2018-10-05T07:51:34.872Z,32.90
2018-10-05T07:54:03.475Z,30.93
2018-10-05T07:56:32.014Z,22.93
2018-10-05T07:59:00.552Z,30.40
2018-10-05T08:01:29.118Z,28.37
2018-10-05T08:03:57.666Z,26.00
2018-10-05T08:06:26.287Z,32.87
2018-10-05T08:08:54.837Z,27.97
2018-10-05T08:11:23.423Z,34.57
2018-10-05T08:13:52.005Z,26.87
2018-10-05T08:16:21.199Z,23.00
2018-10-05T08:18:49.747Z,26.40
2018-10-05T08:21:18.343Z,35.47
2018-10-05T08:23:46.831Z,26.97
2018-10-05T08:26:15.345Z,23.13
2018-10-05T08:28:43.920Z,25.77
2018-10-05T08:31:12.491Z,24.93
2018-10-05T08:33:41.114Z,35.00
2018-10-05T08:36:09.647Z,25.93
2018-10-05T08:38:38.249Z,31.40
2018-10-05T08:41:06.829Z,34.17
2018-10-05T08:43:35.383Z,30.90
2018-10-05T08:46:04.094Z,29.00
2018-10-05T08:48:32.629Z,31.60
2018-10-05T08:51:01.782Z,25.20
2018-10-05T08:53:30.360Z,23.27
2018-10-05T08:55:58.942Z,24.80
2018-10-05T08:58:27.515Z,22.47
2018-10-05T09:00:56.102Z,27.63
2018-10-05T09:03:24.714Z,24.53
2018-10-05T09:05:53.411Z,29.50
2018-10-05T09:08:22.043Z,26.53
2018-10-05T09:10:50.574Z,30.03
2018-10-05T09:13:19.162Z,36.53
2018-10-05T09:15:47.707Z,25.27
2018-10-05T09:18:16.370Z,25.20
2018-10-05T09:20:44.924Z,24.20
2018-10-05T09:23:13.438Z,23.33
2018-10-05T09:25:41.990Z,24.53
2018-10-05T09:28:10.530Z,24.83
2018-10-05T09:30:39.104Z,27.70
2018-10-05T09:33:08.727Z,24.40
2018-10-05T09:35:37.299Z,25.60
2018-10-05T09:38:05.844Z,29.77
2018-10-05T09:40:34.409Z,28.87
2018-10-05T09:43:02.968Z,23.97
2018-10-05T09:45:31.550Z,25.87
2018-10-05T09:48:00.216Z,32.70
2018-10-05T09:50:28.935Z,20.10
2018-10-05T09:52:58.231Z,24.33
2018-10-05T09:55:26.800Z,30.90
2018-10-05T09:57:55.350Z,24.60
2018-10-05T10:00:29.083Z,20.60
2018-10-05T10:03:00.683Z,24.37
2018-10-05T10:05:29.254Z,19.47
2018-10-05T10:07:57.946Z,23.87
2018-10-05T10:10:26.478Z,19.27
2018-10-05T10:12:55.034Z,21.60
2018-10-05T10:15:23.727Z,24.20
2018-10-05T10:17:52.376Z,18.23
2018-10-05T10:20:20.953Z,23.20
2018-10-05T10:22:49.587Z,17.83
2018-10-05T10:25:18.156Z,22.23
2018-10-05T10:27:46.854Z,18.70
2018-10-05T10:30:15.460Z,23.07
2018-10-05T10:32:44.052Z,22.53
2018-10-05T10:35:12.656Z,21.93
2018-10-05T10:37:41.236Z,19.77
2018-10-05T10:40:09.867Z,17.70
2018-10-05T10:42:38.511Z,23.77
2018-10-05T10:45:07.130Z,26.20
2018-10-05T10:47:35.904Z,28.53
2018-10-05T10:50:04.531Z,24.53
2018-10-05T10:52:33.095Z,24.50
2018-10-05T10:55:01.710Z,26.00
2018-10-05T10:57:30.288Z,26.43
2018-10-05T10:59:58.887Z,19.53
2018-10-05T11:02:27.434Z,21.07
2018-10-05T11:04:56.062Z,22.93
2018-10-05T11:07:24.659Z,18.70
2018-10-05T11:09:53.256Z,15.30
2018-10-05T11:12:21.783Z,19.10
2018-10-05T11:14:50.282Z,24.43
2018-10-05T11:17:18.834Z,24.20
2018-10-05T11:19:47.424Z,22.07
2018-10-05T11:22:15.963Z,14.60
2018-10-05T11:24:44.533Z,13.53
2018-10-05T11:27:13.031Z,21.80
2018-10-05T11:29:41.730Z,14.03
2018-10-05T11:32:10.518Z,20.97
2018-10-05T11:34:39.200Z,17.57
2018-10-05T11:37:07.898Z,18.00
2018-10-05T11:39:36.427Z,20.70
2018-10-05T11:42:04.994Z,17.67
2018-10-05T11:44:33.522Z,27.83
2018-10-05T11:47:02.063Z,19.73
2018-10-05T11:49:30.600Z,16.43
2018-10-05T11:51:59.232Z,18.80
2018-10-05T11:54:27.766Z,17.63
2018-10-05T11:56:56.337Z,15.07
2018-10-05T11:59:24.972Z,18.20
2018-10-05T12:01:53.562Z,15.03
2018-10-05T12:04:22.361Z,20.10
2018-10-05T12:06:50.963Z,22.10
2018-10-05T12:09:19.506Z,12.37
2018-10-05T12:11:48.155Z,23.30
2018-10-05T12:14:16.762Z,32.20
2018-10-05T12:16:45.334Z,18.43
2018-10-05T12:19:13.900Z,19.50
2018-10-05T12:21:42.428Z,24.87
2018-10-05T12:24:11.862Z,16.90
2018-10-05T12:26:40.411Z,19.93
2018-10-05T12:29:08.982Z,22.10
2018-10-05T12:31:37.583Z,17.33
2018-10-05T12:34:06.170Z,19.00
2018-10-05T12:36:34.728Z,15.97
2018-10-05T12:39:03.412Z,19.33
2018-10-05T12:41:32.059Z,14.90
2018-10-05T12:44:00.586Z,15.50
2018-10-05T12:46:29.143Z,15.63
2018-10-05T12:48:57.717Z,15.90
2018-10-05T12:51:26.257Z,11.77
2018-10-05T12:53:54.964Z,15.00
2018-10-05T12:56:23.635Z,15.70
2018-10-05T12:58:52.220Z,18.97
2018-10-05T13:01:21.136Z,16.13
2018-10-05T13:03:49.751Z,14.17
2018-10-05T13:06:18.324Z,12.30
2018-10-05T13:08:46.871Z,12.37
2018-10-05T13:11:15.367Z,16.27
2018-10-05T13:13:44.034Z,12.83
2018-10-05T13:16:12.633Z,16.00
2018-10-05T13:18:41.196Z,15.70
2018-10-05T13:21:09.808Z,14.20
2018-10-05T13:23:38.290Z,13.03
2018-10-05T13:26:07.202Z,18.57
2018-10-05T13:28:35.873Z,16.70
2018-10-05T13:31:04.443Z,11.30
2018-10-05T13:33:33.188Z,13.40
2018-10-05T13:36:02.069Z,15.40
2018-10-05T13:38:30.599Z,13.87
2018-10-05T13:40:59.168Z,13.50
2018-10-05T13:43:27.770Z,13.13
2018-10-05T13:45:56.324Z,17.33
2018-10-05T13:48:24.901Z,13.57
2018-10-05T13:50:53.521Z,10.83
2018-10-05T13:53:22.098Z,12.30
2018-10-05T13:55:51.683Z,14.77
2018-10-05T13:58:20.240Z,11.73
2018-10-05T14:00:48.853Z,16.20
2018-10-05T14:03:17.639Z,12.47
2018-10-05T14:05:46.195Z,15.97
2018-10-05T14:08:14.788Z,14.07
2018-10-05T14:10:43.614Z,13.27
2018-10-05T14:13:12.191Z,11.90
2018-10-05T14:15:40.727Z,18.00
2018-10-05T14:18:09.237Z,19.70
2018-10-05T14:20:37.837Z,14.97
2018-10-05T14:23:06.377Z,13.73
2018-10-05T14:25:35.120Z,11.10
2018-10-05T14:28:03.492Z,10.73
2018-10-05T14:30:32.094Z,11.07
2018-10-05T14:33:00.640Z,7.07
2018-10-05T14:35:29.204Z,8.37
2018-10-05T14:37:57.787Z,7.80
2018-10-05T14:40:26.259Z,12.37
2018-10-05T14:42:54.790Z,9.20
2018-10-05T14:45:23.322Z,7.80
2018-10-05T14:47:51.794Z,16.97
2018-10-05T14:50:20.377Z,15.43
2018-10-05T14:52:48.903Z,8.27
2018-10-05T14:55:17.484Z,11.57
2018-10-05T14:57:46.021Z,16.27
2018-10-05T15:00:14.626Z,14.90
2018-10-05T15:02:43.114Z,15.70
2018-10-05T15:05:11.675Z,10.53
2018-10-05T15:07:40.298Z,8.43
2018-10-05T15:10:08.867Z,12.23
2018-10-05T15:12:37.436Z,13.03
2018-10-05T15:15:06.732Z,10.80
2018-10-05T15:17:35.303Z,9.00
2018-10-05T15:20:03.862Z,11.80
2018-10-05T15:22:32.409Z,12.83
2018-10-05T15:25:00.877Z,11.30
2018-10-05T15:27:29.402Z,15.07
2018-10-05T15:29:57.921Z,12.33
2018-10-05T15:32:26.431Z,7.37
2018-10-05T15:34:54.969Z,10.13
2018-10-05T15:37:23.467Z,9.50
2018-10-05T15:39:51.962Z,9.70
2018-10-05T15:42:20.502Z,8.90
2018-10-05T15:44:49.153Z,7.53
2018-10-05T15:47:19.912Z,11.47
2018-10-05T15:49:48.468Z,11.30
2018-10-05T15:52:16.956Z,13.23
2018-10-05T15:54:45.453Z,16.17
2018-10-05T15:57:14.001Z,13.87
2018-10-05T15:59:42.497Z,10.70
2018-10-05T16:02:11.088Z,14.00
2018-10-05T16:04:39.593Z,12.60
2018-10-05T16:07:08.323Z,10.40
2018-10-05T16:09:36.865Z,8.70
2018-10-05T16:12:05.420Z,12.43
2018-10-05T16:14:34.108Z,13.83
2018-10-05T16:17:02.576Z,11.60
2018-10-05T16:19:31.228Z,10.30
2018-10-05T16:21:59.697Z,12.50
2018-10-05T16:24:37.623Z,11.73
2018-10-05T16:27:06.193Z,9.63
2018-10-05T16:29:35.186Z,8.30
2018-10-05T16:32:04.105Z,7.27
2018-10-05T16:34:32.990Z,9.53
2018-10-05T16:37:01.586Z,9.60
2018-10-05T16:39:30.112Z,11.57
2018-10-05T16:41:58.706Z,5.43
2018-10-05T16:44:27.609Z,11.63
2018-10-05T16:46:56.153Z,4.43
2018-10-05T16:49:24.649Z,12.17
2018-10-05T16:51:53.184Z,11.43
2018-10-05T16:54:21.856Z,13.77
2018-10-05T16:56:50.381Z,11.67
2018-10-05T16:59:18.901Z,7.60
2018-10-05T17:01:47.622Z,12.80
2018-10-05T17:04:16.195Z,14.03
2018-10-05T17:06:44.773Z,8.30
2018-10-05T17:09:14.098Z,9.67
2018-10-05T17:11:43.809Z,14.63
2018-10-05T17:14:12.373Z,16.13
2018-10-05T17:16:41.234Z,10.17
2018-10-05T17:19:09.743Z,11.77
2018-10-05T17:21:38.336Z,7.90
2018-10-05T17:24:06.998Z,10.03
2018-10-05T17:26:36.203Z,11.67
2018-10-05T17:29:04.780Z,19.03
2018-10-05T17:31:33.463Z,14.87
2018-10-05T17:34:02.093Z,13.83
2018-10-05T17:36:31.357Z,9.80
2018-10-05T17:38:59.975Z,15.17
2018-10-05T17:41:28.485Z,14.23
2018-10-05T17:43:57.094Z,19.53
2018-10-05T17:46:25.636Z,12.33
2018-10-05T17:48:54.194Z,12.70
2018-10-05T17:51:22.797Z,16.00
2018-10-05T17:53:51.366Z,17.23
2018-10-05T17:56:19.892Z,21.83
2018-10-05T17:58:48.465Z,19.57
2018-10-05T18:01:17.029Z,9.50
2018-10-05T18:03:45.582Z,13.20
2018-10-05T18:06:14.072Z,15.00
2018-10-05T18:08:42.781Z,27.30
2018-10-05T18:11:11.294Z,16.83
2018-10-05T18:13:39.773Z,13.13
2018-10-05T18:16:08.376Z,14.50
2018-10-05T18:18:36.905Z,13.37
2018-10-05T18:21:05.526Z,15.97
2018-10-05T18:23:34.035Z,14.50
2018-10-05T18:26:02.609Z,31.53
2018-10-05T18:28:31.131Z,16.30
2018-10-05T18:30:59.698Z,14.33
2018-10-05T18:33:28.219Z,17.43
2018-10-05T18:35:56.721Z,20.30
2018-10-05T18:38:25.263Z,16.67
2018-10-05T18:40:53.790Z,13.73
2018-10-05T18:43:22.330Z,17.27
2018-10-05T18:45:51.505Z,32.40
2018-10-05T18:48:20.197Z,22.60
2018-10-05T18:50:48.873Z,14.73
2018-10-05T18:53:17.431Z,22.60
2018-10-05T18:55:46.205Z,17.87
2018-10-05T18:58:14.755Z,25.83
2018-10-05T19:00:43.424Z,23.60
2018-10-05T19:03:11.917Z,21.83
2018-10-05T19:05:40.559Z,18.63
2018-10-05T19:08:09.089Z,26.47
2018-10-05T19:10:37.741Z,20.03
2018-10-05T19:13:06.353Z,18.53
2018-10-05T19:15:35.195Z,25.63
2018-10-05T19:18:03.722Z,21.20
2018-10-05T19:20:32.380Z,26.30
2018-10-05T19:23:00.896Z,22.73
2018-10-05T19:25:29.402Z,23.23
2018-10-05T19:27:58.073Z,21.07
2018-10-05T19:30:26.786Z,27.70
2018-10-05T19:32:55.417Z,19.17
2018-10-05T19:35:23.951Z,22.93
2018-10-05T19:37:52.505Z,21.77
2018-10-05T19:40:21.108Z,18.40
2018-10-05T19:42:50.785Z,24.63
2018-10-05T19:45:19.270Z,18.93
2018-10-05T19:47:48.515Z,18.50
2018-10-05T19:50:17.760Z,21.10
2018-10-05T19:52:46.335Z,26.00
2018-10-05T19:55:15.196Z,18.97
2018-10-05T19:57:43.911Z,24.40
2018-10-05T20:00:12.707Z,28.47
2018-10-05T20:02:41.336Z,21.20
2018-10-05T20:05:09.845Z,22.90
2018-10-05T20:07:38.502Z,24.73
2018-10-05T20:10:07.025Z,25.67
2018-10-05T20:12:35.583Z,26.40
2018-10-05T20:15:04.129Z,18.57
2018-10-05T20:17:32.776Z,23.17
2018-10-05T20:20:01.461Z,24.37
2018-10-05T20:22:30.132Z,16.40
2018-10-05T20:24:58.693Z,20.13
2018-10-05T20:27:27.197Z,17.20
2018-10-05T20:29:55.758Z,23.87
2018-10-05T20:32:24.546Z,18.10
2018-10-05T20:34:53.443Z,22.43
2018-10-05T20:37:22.125Z,15.87
2018-10-05T20:39:50.603Z,19.23
2018-10-05T20:42:19.256Z,13.83
2018-10-05T20:44:47.894Z,26.77
2018-10-05T20:47:16.482Z,16.30
2018-10-05T20:49:45.114Z,20.77
2018-10-05T20:52:13.652Z,26.00
2018-10-05T20:54:42.311Z,21.33
2018-10-05T20:57:10.986Z,15.43
2018-10-05T20:59:39.637Z,13.60
2018-10-05T21:02:08.975Z,22.03
2018-10-05T21:04:37.496Z,13.73
2018-10-05T21:07:06.185Z,17.57
2018-10-05T21:09:34.709Z,18.70
2018-10-05T21:12:03.934Z,14.90
2018-10-05T21:14:32.585Z,16.73
2018-10-05T21:17:01.078Z,20.13
2018-10-05T21:19:29.621Z,13.33
2018-10-05T21:21:58.249Z,15.80
2018-10-05T21:24:26.805Z,18.10
2018-10-05T21:27:02.061Z,11.50
2018-10-05T21:29:30.785Z,18.73
2018-10-05T21:31:59.717Z,16.30
2018-10-05T21:34:28.230Z,11.90
2018-10-05T21:36:56.725Z,18.67
2018-10-05T21:39:25.257Z,16.30
2018-10-05T21:41:53.773Z,17.87
2018-10-05T21:44:22.346Z,20.00
2018-10-05T21:46:50.845Z,21.20
2018-10-05T21:49:19.352Z,23.17
2018-10-05T21:51:47.918Z,19.50
2018-10-05T21:54:16.442Z,21.00
2018-10-05T21:56:44.897Z,17.70
2018-10-05T21:59:13.456Z,16.90
2018-10-05T22:01:41.976Z,15.27
2018-10-05T22:04:10.487Z,21.07
2018-10-05T22:06:38.989Z,21.10
2018-10-05T22:09:10.485Z,21.50
2018-10-05T22:11:39.240Z,26.73
2018-10-05T22:14:07.761Z,17.60
2018-10-05T22:16:36.217Z,13.60
2018-10-05T22:19:04.804Z,15.73
2018-10-05T22:21:33.253Z,18.53
2018-10-05T22:24:01.768Z,22.67
2018-10-05T22:26:30.304Z,22.60
2018-10-05T22:28:58.813Z,17.90
2018-10-05T22:31:27.288Z,15.93
2018-10-05T22:33:56.116Z,14.07
2018-10-05T22:36:24.707Z,21.90
2018-10-05T22:38:53.239Z,18.00
2018-10-05T22:41:21.816Z,19.23
2018-10-05T22:43:50.720Z,19.53
2018-10-05T22:46:19.859Z,26.23
2018-10-05T22:48:49.483Z,29.83
2018-10-05T22:51:18.130Z,20.80
2018-10-05T22:53:46.637Z,25.60
2018-10-05T22:56:15.109Z,20.10
2018-10-05T22:58:43.658Z,21.60
2018-10-05T23:01:12.158Z,19.70
2018-10-05T23:03:40.649Z,15.83
2018-10-05T23:06:09.122Z,15.33
2018-10-05T23:08:37.648Z,20.10
2018-10-05T23:11:06.291Z,18.97
2018-10-05T23:13:34.834Z,19.17
2018-10-05T23:16:03.372Z,15.60
2018-10-05T23:18:31.929Z,17.93
2018-10-05T23:21:00.403Z,25.00
2018-10-05T23:23:35.668Z,16.77
2018-10-05T23:26:04.196Z,22.33
2018-10-05T23:28:32.697Z,14.60
2018-10-05T23:31:01.211Z,22.40
2018-10-05T23:33:29.769Z,17.33
2018-10-05T23:35:58.314Z,16.77
2018-10-05T23:38:26.814Z,18.53
2018-10-05T23:40:55.361Z,21.83
2018-10-05T23:43:23.890Z,21.80
2018-10-05T23:45:52.379Z,17.57
2018-10-05T23:48:20.898Z,21.20
2018-10-05T23:50:49.369Z,19.67
2018-10-05T23:53:17.842Z,28.30
2018-10-05T23:55:46.333Z,29.30
2018-10-05T23:58:14.850Z,22.30
